createdAt,value
2022-08-20T05:46:25.481Z,77.11
2022-08-20T05:48:28.541Z,76.73
2022-08-20T05:50:31.692Z,76.10
2022-08-20T05:52:34.527Z,75.67
2022-08-20T05:54:38.290Z,75.38
2022-08-20T05:56:41.268Z,74.91
2022-08-20T05:58:44.140Z,74.39
2022-08-20T06:00:47.136Z,74.43
2022-08-20T06:03:08.986Z,73.87
2022-08-20T06:05:11.807Z,73.92
2022-08-20T06:07:15.938Z,73.72
2022-08-20T06:09:31.142Z,73.57
2022-08-20T06:11:37.260Z,73.42
2022-08-20T06:13:40.426Z,73.09
2022-08-20T06:15:43.514Z,73.11
2022-08-20T06:17:46.362Z,73.30
2022-08-20T06:20:06.154Z,73.24
2022-08-20T06:22:19.433Z,72.82
2022-08-20T06:24:27.605Z,73.08
2022-08-20T06:26:31.366Z,72.70
2022-08-20T06:28:34.208Z,72.45
2022-08-20T06:30:37.448Z,72.53
2022-08-20T06:32:40.374Z,72.61
2022-08-20T06:34:50.408Z,72.42
2022-08-20T06:36:57.778Z,72.17
2022-08-20T06:39:00.561Z,72.09
2022-08-20T06:41:03.477Z,72.21
2022-08-20T06:43:09.905Z,71.86
2022-08-20T06:45:13.565Z,71.66
2022-08-20T06:47:17.273Z,71.34
2022-08-20T06:49:20.131Z,71.31
2022-08-20T06:51:23.385Z,71.51
2022-08-20T06:53:28.901Z,71.22
2022-08-20T06:55:32.948Z,71.15
2022-08-20T06:57:36.281Z,71.25
2022-08-20T06:59:39.058Z,71.23
2022-08-20T07:01:42.155Z,71.27
2022-08-20T07:03:54.343Z,71.14
2022-08-20T07:05:59.454Z,71.15
2022-08-20T07:08:02.943Z,71.39
2022-08-20T07:10:09.934Z,71.25
2022-08-20T07:12:12.623Z,70.71
2022-08-20T07:14:15.586Z,70.38
2022-08-20T07:16:18.426Z,70.30
2022-08-20T07:18:28.697Z,70.61
2022-08-20T07:20:34.057Z,70.42
2022-08-20T07:22:37.675Z,70.40
2022-08-20T07:24:41.236Z,70.63
2022-08-20T07:26:46.885Z,70.63
2022-08-20T07:28:49.868Z,70.67
2022-08-20T07:31:13.272Z,70.38
2022-08-20T07:33:17.558Z,70.14
2022-08-20T07:35:21.653Z,70.64
2022-08-20T07:37:24.923Z,70.67
2022-08-20T07:39:28.550Z,70.28
2022-08-20T07:41:34.186Z,70.12
2022-08-20T07:43:39.469Z,70.25
2022-08-20T07:45:48.513Z,70.37
2022-08-20T07:47:53.676Z,70.16
2022-08-20T07:49:56.494Z,69.90
2022-08-20T07:51:59.606Z,70.28
2022-08-20T07:54:02.608Z,70.31
2022-08-20T07:56:07.567Z,70.44
2022-08-20T07:58:12.777Z,69.96
2022-08-20T08:00:18.850Z,70.26
2022-08-20T08:02:21.642Z,70.02
2022-08-20T08:04:25.785Z,70.55
2022-08-20T08:06:31.543Z,70.47
2022-08-20T08:08:35.406Z,70.02
2022-08-20T08:10:39.305Z,70.23
2022-08-20T08:12:47.485Z,69.91
2022-08-20T08:14:51.486Z,70.28
2022-08-20T08:16:58.457Z,69.81
2022-08-20T08:19:02.108Z,69.94
2022-08-20T08:21:06.458Z,69.68
2022-08-20T08:23:24.868Z,69.90
2022-08-20T08:25:34.948Z,69.55
2022-08-20T08:27:38.207Z,69.82
2022-08-20T08:29:41.344Z,69.74
2022-08-20T08:31:44.221Z,69.29
2022-08-20T08:33:48.478Z,69.28
2022-08-20T08:35:51.320Z,69.74
2022-08-20T08:37:54.730Z,69.49
2022-08-20T08:39:57.593Z,69.25
2022-08-20T08:42:03.098Z,69.46
2022-08-20T08:44:09.440Z,69.16
2022-08-20T08:46:13.710Z,69.16
2022-08-20T08:48:19.627Z,69.32
2022-08-20T08:50:49.962Z,69.40
2022-08-20T08:52:53.314Z,69.29
2022-08-20T08:54:58.102Z,68.92
2022-08-20T08:57:01.885Z,68.93
2022-08-20T08:59:07.702Z,69.01
2022-08-20T09:01:13.965Z,68.76
2022-08-20T09:03:43.258Z,68.75
2022-08-20T09:05:48.104Z,68.83
2022-08-20T09:07:54.214Z,68.86
2022-08-20T09:09:57.248Z,68.77
2022-08-20T09:12:06.497Z,69.04
2022-08-20T09:14:09.285Z,68.50
2022-08-20T09:16:12.237Z,68.45
2022-08-20T09:18:15.048Z,68.41
2022-08-20T09:20:18.380Z,68.65
2022-08-20T09:22:25.526Z,68.40
2022-08-20T09:24:28.335Z,68.48
2022-08-20T09:26:31.139Z,68.88
2022-08-20T09:28:34.920Z,68.46
2022-08-20T09:30:38.007Z,68.78
2022-08-20T09:32:41.561Z,68.90
2022-08-20T09:34:47.170Z,68.55
2022-08-20T09:36:49.927Z,68.54
2022-08-20T09:38:54.305Z,68.79
2022-08-20T09:40:57.181Z,68.63
2022-08-20T09:43:00.004Z,68.53
2022-08-20T09:45:03.016Z,68.90
2022-08-20T09:47:06.881Z,68.86
2022-08-20T09:49:10.528Z,68.53
2022-08-20T09:51:14.201Z,68.32
2022-08-20T09:53:18.523Z,68.21
2022-08-20T09:55:29.191Z,68.21
2022-08-20T09:57:32.898Z,68.69
2022-08-20T09:59:37.467Z,68.49
2022-08-20T10:01:40.305Z,68.52
2022-08-20T10:03:44.274Z,68.59
2022-08-20T10:05:47.594Z,68.17
2022-08-20T10:07:51.322Z,68.19
2022-08-20T10:09:54.098Z,68.25
2022-08-20T10:11:58.300Z,67.83
2022-08-20T10:14:01.079Z,67.94
2022-08-20T10:16:04.335Z,68.46
2022-08-20T10:18:07.892Z,67.71
2022-08-20T10:20:14.530Z,67.99
2022-08-20T10:22:17.446Z,68.19
2022-08-20T10:24:20.777Z,67.95
2022-08-20T10:26:23.601Z,67.97
2022-08-20T10:28:29.653Z,68.07
2022-08-20T10:30:32.553Z,67.70
2022-08-20T10:32:35.380Z,67.82
2022-08-20T10:34:38.223Z,67.83
2022-08-20T10:36:43.289Z,67.85
2022-08-20T10:38:46.475Z,67.71
2022-08-20T10:40:52.453Z,67.47
2022-08-20T10:42:55.572Z,67.43
2022-08-20T10:44:59.800Z,67.41
2022-08-20T10:47:15.595Z,67.35
2022-08-20T10:49:18.500Z,67.53
2022-08-20T10:51:21.373Z,67.23
2022-08-20T10:53:35.962Z,67.28
2022-08-20T10:55:38.891Z,67.13
2022-08-20T10:57:43.453Z,67.12
2022-08-20T10:59:49.009Z,66.89
2022-08-20T11:01:53.213Z,67.12
2022-08-20T11:03:56.124Z,66.71
2022-08-20T11:05:59.196Z,66.89
2022-08-20T11:08:05.598Z,66.55
2022-08-20T11:10:13.637Z,66.16
2022-08-20T11:12:18.104Z,65.98
2022-08-20T11:14:20.998Z,65.89
2022-08-20T11:16:23.800Z,65.66
2022-08-20T11:18:28.153Z,65.54
2022-08-20T11:20:32.024Z,65.80
2022-08-20T11:22:35.072Z,65.95
2022-08-20T11:24:38.387Z,65.75
2022-08-20T11:26:41.824Z,65.71
2022-08-20T11:28:44.778Z,65.70
2022-08-20T11:30:49.967Z,65.44
2022-08-20T11:32:53.218Z,65.62
2022-08-20T11:34:57.382Z,65.29
2022-08-20T11:37:00.317Z,65.47
2022-08-20T11:39:03.239Z,65.04
2022-08-20T11:41:06.247Z,64.96
2022-08-20T11:43:17.198Z,64.75
2022-08-20T11:45:20.572Z,65.05
2022-08-20T11:47:27.748Z,65.08
2022-08-20T11:49:30.735Z,64.63
2022-08-20T11:51:46.544Z,64.41
2022-08-20T11:53:53.020Z,64.76
2022-08-20T11:55:56.109Z,64.62
2022-08-20T11:58:00.981Z,64.29
2022-08-20T12:00:08.889Z,64.51
2022-08-20T12:02:12.675Z,64.40
2022-08-20T12:04:15.615Z,64.32
2022-08-20T12:06:18.665Z,64.14
2022-08-20T12:08:25.281Z,64.15
2022-08-20T12:10:32.181Z,64.04
2022-08-20T12:12:34.961Z,63.85
2022-08-20T12:14:38.898Z,64.22
2022-08-20T12:16:41.827Z,64.01
2022-08-20T12:18:44.665Z,63.69
2022-08-20T12:20:47.742Z,63.63
2022-08-20T12:22:55.175Z,63.82
2022-08-20T12:24:59.716Z,63.87
2022-08-20T12:27:11.139Z,63.66
2022-08-20T12:29:13.938Z,63.53
2022-08-20T12:31:16.720Z,63.66
2022-08-20T12:33:19.498Z,63.26
2022-08-20T12:35:22.795Z,63.11
2022-08-20T12:37:28.416Z,63.65
2022-08-20T12:39:33.418Z,63.51
2022-08-20T12:41:37.657Z,63.14
2022-08-20T12:43:40.525Z,63.49
2022-08-20T12:45:43.677Z,62.99
2022-08-20T12:47:48.430Z,62.85
2022-08-20T12:49:53.780Z,62.73
2022-08-20T12:51:56.578Z,62.56
2022-08-20T12:53:59.631Z,62.55
2022-08-20T12:56:05.008Z,62.68
2022-08-20T12:58:10.666Z,62.56
2022-08-20T13:00:16.926Z,62.75
2022-08-20T13:02:21.473Z,62.33
2022-08-20T13:04:25.407Z,62.21
2022-08-20T13:06:28.451Z,62.17
2022-08-20T13:08:31.481Z,62.20
2022-08-20T13:10:36.543Z,62.51
2022-08-20T13:12:39.361Z,62.39
2022-08-20T13:14:44.050Z,62.25
2022-08-20T13:16:47.021Z,62.33
2022-08-20T13:18:54.196Z,62.20
2022-08-20T13:20:57.158Z,62.16
2022-08-20T13:23:00.122Z,62.14
2022-08-20T13:25:02.953Z,62.06
2022-08-20T13:27:07.720Z,61.75
2022-08-20T13:29:10.634Z,62.04
2022-08-20T13:31:14.857Z,61.86
2022-08-20T13:33:17.693Z,61.72
2022-08-20T13:35:20.676Z,62.01
2022-08-20T13:37:25.992Z,62.22
2022-08-20T13:39:28.937Z,62.05
2022-08-20T13:41:31.840Z,61.79
2022-08-20T13:43:34.713Z,62.14
2022-08-20T13:45:38.316Z,61.84
2022-08-20T13:47:42.986Z,62.17
2022-08-20T13:49:46.100Z,62.35
2022-08-20T13:51:48.909Z,62.18
2022-08-20T13:53:55.068Z,61.97
2022-08-20T13:55:57.918Z,61.79
2022-08-20T13:58:05.890Z,61.73
2022-08-20T14:00:13.745Z,61.76
2022-08-20T14:02:18.356Z,61.79
2022-08-20T14:04:22.542Z,61.79
2022-08-20T14:06:25.385Z,61.96
2022-08-20T14:08:28.595Z,61.85
2022-08-20T14:10:32.965Z,61.87
2022-08-20T14:12:36.363Z,62.01
2022-08-20T14:14:39.148Z,61.80
2022-08-20T14:16:42.190Z,61.59
2022-08-20T14:18:45.073Z,61.57
2022-08-20T14:20:53.310Z,61.60
2022-08-20T14:22:56.604Z,61.85
2022-08-20T14:25:02.997Z,61.74
2022-08-20T14:27:06.279Z,61.68
2022-08-20T14:29:09.026Z,61.75
2022-08-20T14:31:11.838Z,61.48
2022-08-20T14:33:14.658Z,61.83
2022-08-20T14:35:17.837Z,61.66
2022-08-20T14:37:25.366Z,61.46
2022-08-20T14:39:28.284Z,61.76
2022-08-20T14:41:31.081Z,61.67
2022-08-20T14:43:33.932Z,61.39
2022-08-20T14:45:36.870Z,61.43
2022-08-20T14:47:41.954Z,61.30
2022-08-20T14:49:45.864Z,61.33
2022-08-20T14:51:48.782Z,61.28
2022-08-20T14:53:52.881Z,61.36
2022-08-20T14:55:55.786Z,61.22
2022-08-20T14:57:59.365Z,61.18
2022-08-20T15:00:02.434Z,61.42
2022-08-20T15:02:06.144Z,61.51
2022-08-20T15:04:08.930Z,61.16
2022-08-20T15:06:22.133Z,61.53
2022-08-20T15:08:28.359Z,61.54
2022-08-20T15:10:34.254Z,61.36
2022-08-20T15:12:37.237Z,61.22
2022-08-20T15:14:40.125Z,61.44
2022-08-20T15:16:43.907Z,61.41
2022-08-20T15:18:46.727Z,61.82
2022-08-20T15:20:49.414Z,61.35
2022-08-20T15:22:52.880Z,61.34
2022-08-20T15:24:57.679Z,61.30
2022-08-20T15:27:12.638Z,61.62
2022-08-20T15:29:22.688Z,61.37
2022-08-20T15:31:26.324Z,61.36
2022-08-20T15:33:29.210Z,61.35
2022-08-20T15:35:32.288Z,61.13
2022-08-20T15:37:35.086Z,60.91
2022-08-20T15:39:38.018Z,60.61
2022-08-20T15:41:40.847Z,60.46
2022-08-20T15:43:44.996Z,60.29
2022-08-20T15:45:47.892Z,60.58
2022-08-20T15:47:54.168Z,60.43
2022-08-20T15:50:02.717Z,60.21
2022-08-20T15:52:05.755Z,59.80
2022-08-20T15:54:18.280Z,59.92
2022-08-20T15:56:33.171Z,59.86
2022-08-20T15:58:40.718Z,59.41
2022-08-20T16:00:51.996Z,59.34
2022-08-20T16:03:22.974Z,59.24
2022-08-20T16:05:36.577Z,58.70
2022-08-20T16:07:50.445Z,58.54
2022-08-20T16:10:04.562Z,58.36
2022-08-20T16:12:11.348Z,58.27
2022-08-20T16:14:16.844Z,58.16
2022-08-20T16:16:27.980Z,58.13
2022-08-20T16:18:36.041Z,57.94
2022-08-20T16:20:42.346Z,58.23
2022-08-20T16:22:47.546Z,58.04
2022-08-20T16:24:51.214Z,58.17
2022-08-20T16:27:05.362Z,57.68
2022-08-20T16:29:11.849Z,57.46
2022-08-20T16:31:20.146Z,57.71
2022-08-20T16:33:32.566Z,57.41
2022-08-20T16:35:38.524Z,57.58
2022-08-20T16:37:46.240Z,57.07
2022-08-20T16:39:57.185Z,56.90
2022-08-20T16:42:00.407Z,57.08
2022-08-20T16:44:16.674Z,56.82
2022-08-20T16:46:22.647Z,56.35
2022-08-20T16:48:34.907Z,56.33
2022-08-20T16:50:46.801Z,56.50
2022-08-20T16:52:51.554Z,56.14
2022-08-20T16:54:54.426Z,56.01
2022-08-20T16:57:02.314Z,56.13
2022-08-20T16:59:07.344Z,56.19
2022-08-20T17:01:12.152Z,56.12
2022-08-20T17:03:33.576Z,55.70
2022-08-20T17:05:50.843Z,55.83
2022-08-20T17:07:57.891Z,55.81
2022-08-20T17:10:23.468Z,55.66
2022-08-20T17:12:29.694Z,55.52
2022-08-20T17:14:32.653Z,55.29
2022-08-20T17:16:38.329Z,55.15
2022-08-20T17:18:42.798Z,55.19
2022-08-20T17:20:47.562Z,55.11
2022-08-20T17:22:53.552Z,55.03
2022-08-20T17:24:57.289Z,54.94
2022-08-20T17:27:02.660Z,55.26
2022-08-20T17:29:18.346Z,54.96
2022-08-20T17:31:38.807Z,54.73
2022-08-20T17:33:42.133Z,54.60
2022-08-20T17:35:53.113Z,54.84
2022-08-20T17:37:56.512Z,54.54
2022-08-20T17:40:08.529Z,54.80
2022-08-20T17:42:18.733Z,54.73
2022-08-20T17:44:24.920Z,54.82
2022-08-20T17:46:29.545Z,54.78
2022-08-20T17:48:36.389Z,54.39
2022-08-20T17:50:42.168Z,54.57
2022-08-20T17:52:51.773Z,54.72
2022-08-20T17:54:55.098Z,54.35
2022-08-20T17:57:03.037Z,54.59
2022-08-20T17:59:10.751Z,54.60
2022-08-20T18:01:15.854Z,54.65
2022-08-20T18:03:23.382Z,54.85
2022-08-20T18:05:28.683Z,54.47
2022-08-20T18:07:39.621Z,54.97
2022-08-20T18:09:51.127Z,54.59
2022-08-20T18:12:00.718Z,55.11
2022-08-20T18:14:19.938Z,54.66
2022-08-20T18:16:31.903Z,55.20
2022-08-20T18:18:56.957Z,55.08
2022-08-20T18:21:15.379Z,55.38
2022-08-20T18:23:23.464Z,55.50
2022-08-20T18:25:33.614Z,55.46
2022-08-20T18:27:41.628Z,55.69
2022-08-20T18:29:46.574Z,55.74
2022-08-20T18:31:52.610Z,55.98
2022-08-20T18:33:56.214Z,56.03
2022-08-20T18:36:08.504Z,56.26
2022-08-20T18:38:14.467Z,56.12
2022-08-20T18:40:27.990Z,56.12
2022-08-20T18:42:34.860Z,55.99
2022-08-20T18:44:44.043Z,56.29
2022-08-20T18:46:58.599Z,56.59
2022-08-20T18:49:03.791Z,56.33
2022-08-20T18:51:12.128Z,56.28
2022-08-20T18:53:18.866Z,56.49
2022-08-20T18:55:36.054Z,56.37
2022-08-20T18:57:53.097Z,56.71
2022-08-20T19:00:01.105Z,56.63
2022-08-20T19:02:17.525Z,56.88
2022-08-20T19:04:28.990Z,56.86
2022-08-20T19:06:41.829Z,56.76
2022-08-20T19:08:50.510Z,56.67
2022-08-20T19:11:04.080Z,56.67
2022-08-20T19:13:47.173Z,56.86
2022-08-20T19:15:54.208Z,56.73
2022-08-20T19:18:04.402Z,56.66
2022-08-20T19:20:13.898Z,56.96
2022-08-20T19:22:20.633Z,56.80
2022-08-20T19:24:27.383Z,56.73
2022-08-20T19:26:32.778Z,56.72
2022-08-20T19:28:41.958Z,56.91
2022-08-20T19:30:46.196Z,56.69
2022-08-20T19:32:52.100Z,56.68
2022-08-20T19:34:57.885Z,56.91
2022-08-20T19:37:27.637Z,56.71
2022-08-20T19:39:28.698Z,57.10
2022-08-20T19:41:42.443Z,56.62
2022-08-20T19:43:46.362Z,57.19
2022-08-20T19:45:54.513Z,57.10
2022-08-20T19:48:11.430Z,56.95
2022-08-20T19:50:22.866Z,56.98
2022-08-20T19:52:39.753Z,57.20
2022-08-20T19:54:49.558Z,57.28
2022-08-20T19:56:56.886Z,57.15
2022-08-20T19:59:03.339Z,56.86
2022-08-20T20:01:16.562Z,57.07
2022-08-20T20:03:22.007Z,57.57
2022-08-20T20:05:25.051Z,57.35
2022-08-20T20:07:30.195Z,57.11
2022-08-20T20:09:33.024Z,57.56
2022-08-20T20:11:38.538Z,57.32
2022-08-20T20:13:41.486Z,57.23
2022-08-20T20:15:45.083Z,57.67
2022-08-20T20:17:49.748Z,57.38
2022-08-20T20:19:56.789Z,57.76
2022-08-20T20:22:16.088Z,57.51
2022-08-20T20:24:25.838Z,57.10
2022-08-20T20:26:32.773Z,57.26
2022-08-20T20:28:45.425Z,57.36
2022-08-20T20:30:48.989Z,57.26
2022-08-20T20:32:53.501Z,57.37
2022-08-20T20:34:59.936Z,57.25
2022-08-20T20:37:07.301Z,57.21
2022-08-20T20:39:24.365Z,56.95
2022-08-20T20:41:29.849Z,56.87
2022-08-20T20:43:35.367Z,57.14
2022-08-20T20:45:41.920Z,57.35
2022-08-20T20:47:51.891Z,57.07
2022-08-20T20:49:59.893Z,57.43
2022-08-20T20:52:06.147Z,56.99
2022-08-20T20:54:27.193Z,56.89
2022-08-20T20:56:36.722Z,57.42
2022-08-20T20:58:39.668Z,57.45
2022-08-20T21:00:48.084Z,57.36
2022-08-20T21:02:51.476Z,56.84
2022-08-20T21:04:54.272Z,57.33
2022-08-20T21:07:06.937Z,57.03
2022-08-20T21:09:09.932Z,57.46
2022-08-20T21:11:13.220Z,56.99
2022-08-20T21:13:16.421Z,57.31
2022-08-20T21:15:19.973Z,57.39
